Arapahoe, North Carolina
Current Conditions -  °F | °C
As of 2:54 PM on Friday 28 Nov 2014 (Local Time) from KNKT Reporting Station
Clear Clear  
Wind Chill: 42°   Ceiling: Unl
Heat Index: 46°   Visibility: 10mi
Dew Point: 21°   Wind: 7mph
Humidity: 37%   Direction: 310°NW
Pressure: 30.3"   Gusts: NA
Location:  35.03°N, 76.83°W
Report Text: KNKT 281954Z AUTO 31006KT 10SM CLR 08/M06 A3030 RMK AO2 SLP255 T00781061 $
Loading
Personal Weather Stations






























Interactive Weather Map New forecast layout! Learn more

10-Day Weather Forecast

Advertisements
Track Severe Weather on mobile